Nearby METAR Reports

 

KSBP - San Luis Obispo, California, USA
Distance from station: S 14mi, 22km
Updated: Fri, 16-Nov-2018 1:56am
Clear
Clear
 Wind from calm
Wind: Calm
Temperature: 45°F , 7°C
Dew Point: 27°F , -3°C
Humidity: 49%
Barometer: 1016.3 hPa
Clouds: Clear
Visibility: 10 miles , 16 km
2018/11/16 09:56 KSBP 160956Z AUTO 00000KT 10SM CLR 07/M03 A3001 RMK AO2 SLP162 T00671028
KPRB - Paso Robles, California, USA
Distance from station: N 16mi, 26km
Updated: Fri, 16-Nov-2018 1:53am
Clear
Clear
 Wind from calm
Wind: Calm
Temperature: 37°F , 3°C
Dew Point: 21°F , -6°C
Humidity: 52%
Barometer: 1017.6 hPa
Clouds: Clear
Visibility: 7 miles , 11 km
2018/11/16 09:53 KPRB 160953Z AUTO 00000KT 7SM CLR 03/M06 A3005 RMK AO2 SLP174 T00281056
 
KSMX - Santa Maria, California, USA
Distance from station: SSE 38mi, 62km
Updated: Fri, 16-Nov-2018 1:51am
Clear
Clear
 Wind from SE
Wind: SE 3 mph , 6 km/h
Temperature: 46°F , 8°C
Dew Point: 36°F , 2°C
Humidity: 66%
Barometer: 1016.6 hPa
Clouds: Clear
Visibility: 10 miles , 16 km
2018/11/16 09:51 KSMX 160951Z AUTO 14003KT 10SM CLR 08/02 A3002 RMK AO2 SLP167 T00780017 $
KVBG - Vandenberg Afb, California, USA
Distance from station: S 48mi, 78km
Updated: Fri, 16-Nov-2018 1:58am
Few Clouds
Few Clouds
 Wind from ESE
Wind: ESE 6 mph , 9 km/h
Temperature: 45°F , 7°C
Wind Chill: 42°F , 6°C
Dew Point: 39°F , 4°C
Humidity: 81%
Barometer: 1016.3 hPa
Clouds: Few Clouds
Visibility: 10 miles , 16 km
Cloud details: Few Clouds 27000 ft
2018/11/16 09:58 KVBG 160958Z AUTO 11005KT 10SM FEW270 07/04 A3001 RMK AO2 SLP165 T00690040